createdAt,value
2019-04-14T00:01:26.494Z,4.70
2019-04-14T00:06:32.947Z,4.60
2019-04-14T00:11:46.082Z,4.60
2019-04-14T00:16:52.857Z,4.70
2019-04-14T00:22:03.050Z,4.50
2019-04-14T00:27:10.572Z,4.40
2019-04-14T00:32:18.608Z,4.20
2019-04-14T00:37:44.410Z,4.20
2019-04-14T00:43:13.422Z,4.20
2019-04-14T00:48:23.107Z,4.10
2019-04-14T00:53:30.304Z,4.00
2019-04-14T00:58:36.861Z,4.00
2019-04-14T01:03:43.774Z,4.00
2019-04-14T01:08:51.282Z,4.10
2019-04-14T01:13:59.404Z,4.10
2019-04-14T01:19:06.813Z,4.10
2019-04-14T01:24:12.769Z,4.20
2019-04-14T01:29:18.768Z,4.20
2019-04-14T01:34:25.877Z,4.10
2019-04-14T01:39:32.770Z,4.20
2019-04-14T01:44:39.605Z,4.20
2019-04-14T01:49:46.614Z,4.20
2019-04-14T01:55:11.438Z,4.20
2019-04-14T02:00:46.571Z,4.20
2019-04-14T02:05:53.852Z,4.10
2019-04-14T02:11:00.960Z,4.20
2019-04-14T02:16:32.992Z,4.20
2019-04-14T02:21:32.411Z,4.20
2019-04-14T02:26:39.451Z,4.10
2019-04-14T02:32:13.847Z,4.10
2019-04-14T02:37:19.155Z,4.20
2019-04-14T02:42:40.241Z,4.10
2019-04-14T02:47:56.735Z,4.20
2019-04-14T02:52:43.124Z,4.10
2019-04-14T03:02:56.457Z,4.20
2019-04-14T03:08:08.253Z,4.20
2019-04-14T03:13:40.843Z,4.20
2019-04-14T03:19:16.548Z,4.30
2019-04-14T03:24:31.820Z,4.30
2019-04-14T03:29:43.440Z,4.20
2019-04-14T03:35:03.515Z,4.10
2019-04-14T03:39:58.628Z,3.90
2019-04-14T03:45:09.453Z,3.90
2019-04-14T03:50:16.128Z,3.90
2019-04-14T03:55:11.322Z,3.90
2019-04-14T04:00:07.374Z,3.80
2019-04-14T04:05:15.179Z,3.70
2019-04-14T04:10:22.644Z,3.60
2019-04-14T04:15:37.518Z,3.30
2019-04-14T04:21:01.158Z,3.20
2019-04-14T04:26:19.067Z,3.30
2019-04-14T04:31:35.048Z,3.00
2019-04-14T04:37:03.865Z,3.10
2019-04-14T04:42:11.143Z,3.10
2019-04-14T04:47:17.211Z,3.00
2019-04-14T04:52:23.678Z,3.00
2019-04-14T04:57:30.437Z,3.00
2019-04-14T05:02:37.390Z,3.10
2019-04-14T05:07:44.775Z,3.10
2019-04-14T05:19:20.580Z,3.20
2019-04-14T05:24:39.684Z,3.20
2019-04-14T05:29:55.816Z,3.50
2019-04-14T05:35:03.129Z,3.70
2019-04-14T05:48:16.483Z,3.90
2019-04-14T05:53:24.048Z,4.10
2019-04-14T06:00:24.039Z,4.20
2019-04-14T06:06:15.164Z,4.20
2019-04-14T06:11:23.106Z,4.20
2019-04-14T06:16:28.953Z,4.10
2019-04-14T06:21:41.590Z,4.00
2019-04-14T06:26:48.066Z,4.20
2019-04-14T06:32:16.265Z,4.20
2019-04-14T06:37:36.723Z,4.40
2019-04-14T06:42:43.267Z,4.40
2019-04-14T06:47:49.081Z,4.40
2019-04-14T06:52:57.782Z,4.30
2019-04-14T06:58:06.478Z,4.10
2019-04-14T07:03:12.676Z,4.20
2019-04-14T07:08:18.477Z,4.40
2019-04-14T07:13:24.589Z,4.40
2019-04-14T07:18:31.238Z,4.30
2019-04-14T07:23:37.682Z,4.30
2019-04-14T07:28:56.187Z,4.40
2019-04-14T07:34:16.412Z,4.40
2019-04-14T07:39:42.600Z,4.30
2019-04-14T07:44:56.242Z,4.10
2019-04-14T07:50:16.503Z,3.90
2019-04-14T07:55:50.055Z,4.00
2019-04-14T08:01:13.979Z,4.00
2019-04-14T08:06:20.146Z,4.00
2019-04-14T08:11:26.533Z,4.10
2019-04-14T08:16:32.628Z,4.60
2019-04-14T08:21:38.614Z,4.80
2019-04-14T08:26:48.378Z,5.10
2019-04-14T08:31:54.682Z,5.20
2019-04-14T08:37:00.726Z,5.20
2019-04-14T08:42:28.411Z,5.10
2019-04-14T08:47:53.505Z,5.00
2019-04-14T08:53:20.635Z,5.20
2019-04-14T09:04:23.056Z,5.50
2019-04-14T09:09:39.853Z,5.30
2019-04-14T09:14:56.959Z,5.80
2019-04-14T09:19:54.395Z,5.60
2019-04-14T09:25:00.696Z,5.60
2019-04-14T09:30:08.215Z,4.90
2019-04-14T09:35:48.665Z,4.50
2019-04-14T09:41:27.940Z,4.40
2019-04-14T09:46:35.437Z,4.90
2019-04-14T09:51:43.762Z,5.70
2019-04-14T09:56:50.913Z,5.80
2019-04-14T10:01:57.702Z,5.50
2019-04-14T10:07:04.284Z,5.40
2019-04-14T10:12:10.579Z,5.20
2019-04-14T10:17:16.879Z,5.00
2019-04-14T10:22:33.355Z,5.00
2019-04-14T10:27:33.154Z,5.20
2019-04-14T10:32:41.980Z,6.20
2019-04-14T10:37:49.060Z,6.60
2019-04-14T10:42:54.869Z,5.90
2019-04-14T10:48:00.879Z,5.70
2019-04-14T10:53:07.113Z,5.60
2019-04-14T10:58:12.955Z,5.50
2019-04-14T11:03:19.229Z,5.60
2019-04-14T11:08:26.094Z,5.60
2019-04-14T11:13:33.366Z,6.00
2019-04-14T11:18:39.358Z,6.40
2019-04-14T11:23:45.158Z,6.40
2019-04-14T11:28:51.427Z,6.40
2019-04-14T11:34:01.305Z,6.60
2019-04-14T11:39:10.649Z,6.70
2019-04-14T11:44:16.903Z,6.80
2019-04-14T11:49:22.835Z,7.20
2019-04-14T11:54:29.054Z,7.50
2019-04-14T11:59:47.933Z,7.60
2019-04-14T12:05:03.117Z,7.30
2019-04-14T12:10:13.118Z,7.10
2019-04-14T12:15:18.854Z,6.80
2019-04-14T12:20:25.206Z,6.70
2019-04-14T12:25:32.254Z,6.70
2019-04-14T12:30:39.801Z,6.90
2019-04-14T12:35:45.727Z,7.10
2019-04-14T12:40:56.284Z,7.00
2019-04-14T12:46:21.609Z,6.60
2019-04-14T12:51:37.420Z,6.00
2019-04-14T12:56:44.084Z,6.00
2019-04-14T13:02:10.938Z,6.00
2019-04-14T13:07:17.433Z,5.80
2019-04-14T13:12:25.639Z,5.50
2019-04-14T13:17:31.719Z,5.50
2019-04-14T13:22:37.448Z,5.40
2019-04-14T13:27:44.268Z,5.50
2019-04-14T13:32:53.540Z,5.50
2019-04-14T13:37:59.676Z,5.60
2019-04-14T13:43:05.801Z,5.40
2019-04-14T13:48:11.703Z,5.30
2019-04-14T13:53:17.545Z,5.30
2019-04-14T13:58:24.542Z,5.20
2019-04-14T14:03:33.897Z,5.00
2019-04-14T14:08:39.601Z,5.00
2019-04-14T14:14:02.109Z,4.90
2019-04-14T14:19:23.702Z,4.90
2019-04-14T14:24:36.657Z,4.90
2019-04-14T14:29:42.643Z,4.80
2019-04-14T14:34:48.975Z,4.90
2019-04-14T14:39:54.921Z,5.00
2019-04-14T14:45:21.214Z,5.00
2019-04-14T14:57:01.477Z,4.90
2019-04-14T15:02:07.407Z,5.00
2019-04-14T15:07:15.458Z,5.00
2019-04-14T15:12:48.793Z,5.00
2019-04-14T15:17:58.201Z,5.00
2019-04-14T15:23:04.417Z,4.90
2019-04-14T15:28:15.626Z,4.90
2019-04-14T15:33:21.399Z,4.80
2019-04-14T15:38:27.710Z,4.80
2019-04-14T15:43:33.884Z,4.80
2019-04-14T15:48:41.393Z,4.80
2019-04-14T15:53:51.247Z,4.90
2019-04-14T15:59:03.365Z,4.80
2019-04-14T16:04:28.817Z,4.90
2019-04-14T16:09:58.295Z,4.90
2019-04-14T16:15:24.038Z,4.80
2019-04-14T16:20:35.867Z,4.80
2019-04-14T16:26:14.165Z,4.70
2019-04-14T16:37:42.960Z,4.70
2019-04-14T16:42:49.019Z,4.80
2019-04-14T16:47:55.252Z,4.70
2019-04-14T16:53:21.198Z,4.80
2019-04-14T16:58:42.610Z,4.80
2019-04-14T17:03:48.735Z,4.90
2019-04-14T17:08:55.442Z,4.80
2019-04-14T17:14:07.472Z,4.90
2019-04-14T17:19:24.139Z,4.90
2019-04-14T17:25:08.974Z,4.90
2019-04-14T17:30:39.857Z,4.90
2019-04-14T17:36:06.156Z,4.90
2019-04-14T17:41:49.438Z,5.00
2019-04-14T17:47:16.817Z,5.00
2019-04-14T17:52:48.103Z,5.00
2019-04-14T17:58:28.208Z,5.00
2019-04-14T18:03:53.335Z,4.90
2019-04-14T18:09:15.541Z,5.00
2019-04-14T18:14:41.149Z,4.90
2019-04-14T18:20:07.023Z,4.90
2019-04-14T18:25:17.641Z,5.00
2019-04-14T18:30:30.288Z,4.90
2019-04-14T18:35:53.585Z,4.90
2019-04-14T18:47:33.117Z,4.90
2019-04-14T18:52:57.173Z,4.90
2019-04-14T18:58:32.589Z,4.90
2019-04-14T19:03:38.594Z,4.80
2019-04-14T19:08:44.759Z,4.80
2019-04-14T19:13:52.635Z,4.90
2019-04-14T19:19:00.430Z,4.80
2019-04-14T19:24:11.852Z,4.80
2019-04-14T19:29:17.829Z,4.70
2019-04-14T19:34:24.102Z,4.70
2019-04-14T19:39:32.599Z,4.70
2019-04-14T19:44:38.709Z,4.70
2019-04-14T19:49:44.988Z,4.70
2019-04-14T19:54:50.644Z,4.80
2019-04-14T19:59:56.644Z,4.70
2019-04-14T20:05:02.410Z,4.70
2019-04-14T20:10:10.776Z,4.70
2019-04-14T20:15:23.315Z,4.70
2019-04-14T20:20:54.793Z,4.70
2019-04-14T20:26:35.998Z,4.70
2019-04-14T20:31:50.559Z,4.70
2019-04-14T20:36:56.487Z,4.70
2019-04-14T20:42:02.789Z,4.70
2019-04-14T20:47:09.677Z,4.70
2019-04-14T20:52:15.570Z,4.70
2019-04-14T20:57:21.861Z,4.70
2019-04-14T21:02:46.835Z,4.70
2019-04-14T21:08:11.841Z,4.60
2019-04-14T21:13:22.898Z,4.50
2019-04-14T21:18:50.096Z,4.50
2019-04-14T21:24:19.741Z,4.50
2019-04-14T21:29:50.414Z,4.60
2019-04-14T21:35:06.795Z,4.70
2019-04-14T21:40:34.669Z,4.60
2019-04-14T21:45:40.976Z,4.70
2019-04-14T21:50:47.103Z,4.70
2019-04-14T21:55:53.563Z,4.60
2019-04-14T22:01:45.121Z,4.70
2019-04-14T22:06:53.892Z,4.60
2019-04-14T22:12:01.367Z,4.60
2019-04-14T22:17:07.183Z,4.60
2019-04-14T22:22:13.058Z,4.60
2019-04-14T22:27:19.620Z,4.50
2019-04-14T22:32:25.578Z,4.60
2019-04-14T22:37:31.391Z,4.60
2019-04-14T22:42:56.334Z,4.60
2019-04-14T22:48:03.070Z,4.50
2019-04-14T22:53:40.675Z,4.50
2019-04-14T22:58:46.661Z,4.50
2019-04-14T23:04:09.978Z,4.50
2019-04-14T23:09:46.930Z,4.60
2019-04-14T23:15:10.288Z,4.50
2019-04-14T23:20:29.665Z,4.50
2019-04-14T23:25:36.350Z,4.40
2019-04-14T23:30:42.218Z,4.50
2019-04-14T23:35:48.266Z,4.40
2019-04-14T23:40:54.285Z,4.40
2019-04-14T23:45:59.964Z,4.40
2019-04-14T23:51:05.704Z,4.40
2019-04-14T23:56:12.444Z,4.40
